Loma Alta, Texas
Current Conditions -  °F | °C
As of 10:53 PM on Sunday 21 Dec 2014 (Local Time) from KDRT Reporting Station
Clear Clear  
Wind Chill: 51°   Ceiling: Unl
Heat Index: 51°   Visibility: 10mi
Dew Point: 48°   Wind: 12mph
Humidity: 89%   Direction: 90°E
Pressure: 29.82"   Gusts: NA
Location:  29.92°N, 100.87°W
Report Text: KDRT 220453Z AUTO 09010KT 10SM CLR 11/09 A2982 RMK AO2 SLP094 T01060089
Loading
Personal Weather Stations






























Interactive Weather Map New forecast layout! Learn more

10-Day Weather Forecast

Advertisements
Track Severe Weather on mobile